Time;durP1;ratioP1;P1;durP2;ratioP2;P2;SDS_P1;SDS_P2;PMS_P1;PMS_P2;Temp;Humidity;BMP_temperature;BMP_pressure;BME280_temperature;BME280_humidity;BME280_pressure;Samples;Min_cycle;Max_cycle;Signal;HPM_P1;HPM_P2
2021/12/23 00:00:29;;;;;;;1.77;1.37;;;-7.90;1.40;;;-7.43;100.00;95665.47;646995;216;31555;-75
2021/12/23 00:03:14;;;;;;;1.85;1.27;;;-7.80;1.40;;;-7.47;100.00;95660.67;646069;216;31559;-75
2021/12/23 00:05:56;;;;;;;2.20;1.33;;;-7.80;1.40;;;-7.37;100.00;95660.87;647614;216;31552;-74
2021/12/23 00:08:37;;;;;;;4.70;1.80;;;-7.70;1.40;;;-7.31;100.00;95666.70;648876;216;31538;-74
2021/12/23 00:11:24;;;;;;;3.95;1.45;;;-7.70;1.40;;;-7.32;100.00;95655.25;648090;216;32130;-74
2021/12/23 00:14:08;;;;;;;2.03;1.00;;;-7.70;1.40;;;-7.33;100.00;95653.06;646951;216;31551;-74
2021/12/23 00:17:16;;;;;;;0.65;0.65;;;-7.60;1.40;;;-7.38;100.00;95654.83;647325;216;31528;-74
2021/12/23 00:19:46;;;;;;;1.20;1.10;;;-7.60;1.40;;;-7.38;100.00;95650.81;646777;212;31537;-74
2021/12/23 00:25:03;;;;;;;1.30;0.90;;;-7.60;1.40;;;-7.33;100.00;95647.56;647569;216;31714;-74
2021/12/23 00:27:44;;;;;;;2.00;0.80;;;-7.60;1.40;;;-7.30;100.00;95640.04;647383;216;31536;-74
2021/12/23 00:30:26;;;;;;;0.80;0.80;;;-7.70;1.40;;;-7.25;100.00;95641.75;653016;216;23481;-74
2021/12/23 00:35:55;;;;;;;4.20;2.30;;;-7.40;1.40;;;-7.16;100.00;95640.07;646590;216;32328;-74
2021/12/23 00:38:42;;;;;;;3.47;1.75;;;-7.40;1.40;;;-7.10;100.00;95635.43;647448;212;32105;-74
2021/12/23 00:41:19;;;;;;;4.10;1.35;;;-7.40;1.40;;;-7.02;100.00;95626.51;647442;212;31667;-75
2021/12/23 00:44:01;;;;;;;1.48;1.37;;;-7.30;1.40;;;-7.03;100.00;95624.16;647995;216;32144;-76
2021/12/23 00:46:43;;;;;;;2.00;0.80;;;-7.30;1.40;;;-6.95;100.00;95623.83;648875;212;31534;-75
2021/12/23 00:49:25;;;;;;;0.93;0.85;;;-7.20;1.40;;;-6.95;100.00;95628.98;647205;216;31613;-74
2021/12/23 00:52:08;;;;;;;5.68;1.80;;;-7.30;1.40;;;-7.02;100.00;95627.58;647558;216;31645;-74
2021/12/23 00:54:49;;;;;;;2.80;1.60;;;-7.30;1.40;;;-7.04;100.00;95627.91;646950;212;31514;-74
2021/12/23 00:57:38;;;;;;;2.08;0.93;;;-7.30;1.40;;;-7.03;100.00;95623.08;647313;216;32154;-74
2021/12/23 01:00:16;;;;;;;1.40;1.30;;;-7.30;1.40;;;-7.00;100.00;95624.68;648067;212;31596;-74
2021/12/23 01:03:01;;;;;;;2.70;1.60;;;-7.30;1.40;;;-7.04;100.00;95625.92;647060;212;31537;-75
2021/12/23 01:05:42;;;;;;;4.20;1.52;;;-7.30;1.40;;;-7.10;100.00;95622.69;640420;216;31776;-74
2021/12/23 01:08:24;;;;;;;2.72;2.28;;;-7.40;1.40;;;-7.13;100.00;95616.07;646926;216;31551;-74
2021/12/23 01:11:08;;;;;;;2.85;1.65;;;-7.30;1.40;;;-7.11;100.00;95618.33;647716;216;32046;-74
2021/12/23 01:16:37;;;;;;;9.00;1.70;;;-7.40;1.40;;;-7.12;100.00;95623.73;647898;216;31623;-74
2021/12/23 01:19:12;;;;;;;4.10;1.77;;;-7.40;1.40;;;-7.16;100.00;95627.94;647474;212;31623;-74
2021/12/23 01:21:49;;;;;;;1.90;1.60;;;-7.50;1.40;;;-7.15;100.00;95630.94;647268;216;32688;-74
2021/12/23 01:24:33;;;;;;;3.37;1.23;;;-7.40;1.40;;;-7.05;100.00;95628.13;647084;216;31590;-74
2021/12/23 01:27:13;;;;;;;3.62;1.40;;;-7.30;1.40;;;-6.98;100.00;95630.34;647907;212;31617;-75
2021/12/23 01:29:54;;;;;;;2.20;1.30;;;-7.30;1.40;;;-6.90;100.00;95632.89;647748;216;31675;-74
2021/12/23 01:32:37;;;;;;;3.67;1.65;;;-7.20;1.40;;;-6.79;100.00;95633.27;647033;212;31618;-74
2021/12/23 01:35:51;;;;;;;1.87;1.25;;;-7.00;1.40;;;-6.68;100.00;95635.56;647535;212;31615;-74
2021/12/23 01:38:33;;;;;;;1.60;1.00;;;-7.00;1.40;;;-6.60;100.00;95640.03;619192;226;31923;-74
2021/12/23 01:41:15;;;;;;;1.48;1.10;;;-7.00;1.40;;;-6.52;100.00;95636.33;647654;212;31576;-73
2021/12/23 01:43:56;;;;;;;2.12;1.80;;;-6.90;1.40;;;-6.40;100.00;95631.70;647385;216;31565;-74
2021/12/23 01:46:38;;;;;;;5.20;2.15;;;-6.70;1.40;;;-6.14;100.00;95624.69;647402;216;31540;-74
2021/12/23 01:49:20;;;;;;;3.90;2.25;;;-6.40;1.40;;;-5.95;100.00;95618.23;647086;216;31531;-74
2021/12/23 01:52:01;;;;;;;2.30;1.60;;;-6.20;1.40;;;-5.85;100.00;95613.63;620594;226;32008;-74
2021/12/23 01:54:43;;;;;;;1.70;1.05;;;-6.10;1.40;;;-5.76;100.00;95610.19;619723;226;31929;-74
2021/12/23 01:57:25;;;;;;;0.80;0.80;;;-6.10;1.40;;;-5.60;100.00;95602.49;647176;216;31536;-74
2021/12/23 02:00:08;;;;;;;2.97;2.70;;;-5.90;1.40;;;-5.49;100.00;95599.27;649353;216;31538;-75
2021/12/23 02:02:50;;;;;;;2.17;0.98;;;-5.90;1.40;;;-5.39;100.00;95594.78;647934;216;31604;-74
2021/12/23 02:05:31;;;;;;;1.37;1.27;;;-5.70;1.40;;;-5.22;100.00;95593.94;641857;216;31713;-74
2021/12/23 02:08:13;;;;;;;3.25;3.05;;;-5.60;1.40;;;-5.08;100.00;95594.27;647028;212;32062;-75
2021/12/23 02:10:55;;;;;;;1.60;1.40;;;-5.50;1.40;;;-4.99;100.00;95588.51;647827;212;31597;-74
2021/12/23 02:13:40;;;;;;;2.20;1.95;;;-5.40;1.40;;;-4.91;100.00;95583.95;647277;212;42225;-74
2021/12/23 02:16:22;;;;;;;2.80;1.80;;;-5.20;1.40;;;-4.84;100.00;95577.52;646795;212;42181;-74
2021/12/23 02:19:04;;;;;;;4.12;1.45;;;-5.10;1.40;;;-4.78;100.00;95565.61;648282;212;31612;-74
2021/12/23 02:21:46;;;;;;;2.30;1.70;;;-5.10;1.40;;;-4.74;100.00;95559.75;648245;212;31883;-74
2021/12/23 02:24:28;;;;;;;2.60;1.30;;;-5.00;1.40;;;-4.65;100.00;95553.19;645917;216;42192;-74
2021/12/23 02:27:10;;;;;;;4.50;2.30;;;-5.00;1.40;;;-4.59;100.00;95554.11;646918;212;31602;-74
2021/12/23 02:29:54;;;;;;;3.40;2.50;;;-5.00;1.40;;;-4.66;100.00;95552.52;647403;216;31875;-75
2021/12/23 02:32:36;;;;;;;1.83;1.52;;;-5.00;1.40;;;-4.59;100.00;95549.00;619882;226;43321;-75
2021/12/23 02:35:50;;;;;;;2.65;2.45;;;-5.00;1.40;;;-4.58;100.00;95531.60;647063;212;31571;-74
2021/12/23 02:38:35;;;;;;;5.55;2.03;;;-5.00;1.40;;;-4.65;100.00;95521.73;647011;212;42415;-75
2021/12/23 02:41:17;;;;;;;1.00;0.90;;;-5.10;1.40;;;-4.70;100.00;95524.17;647999;216;31634;-74
2021/12/23 02:43:58;;;;;;;2.87;1.10;;;-5.20;1.40;;;-4.81;100.00;95521.14;647969;216;31656;-75
2021/12/23 02:46:40;;;;;;;1.50;1.17;;;-5.20;1.40;;;-4.73;100.00;95516.79;647918;216;33316;-74
2021/12/23 02:49:22;;;;;;;2.17;1.70;;;-5.30;1.40;;;-4.69;100.00;95520.48;647887;216;31655;-74
2021/12/23 02:52:04;;;;;;;3.50;1.60;;;-5.30;1.40;;;-4.64;100.00;95519.54;648504;216;32067;-74
2021/12/23 02:54:45;;;;;;;2.80;1.67;;;-5.40;1.40;;;-4.73;100.00;95531.07;646818;212;31567;-75
2021/12/23 02:57:27;;;;;;;1.35;1.25;;;-5.50;1.40;;;-4.79;100.00;95527.92;647077;216;42176;-75
2021/12/23 03:00:10;;;;;;;4.03;2.40;;;-5.50;1.40;;;-4.94;100.00;95523.00;648696;212;31562;-75
2021/12/23 03:02:52;;;;;;;4.78;1.48;;;-5.60;1.40;;;-5.07;100.00;95528.28;646189;212;31529;-74
2021/12/23 03:05:33;;;;;;;7.00;1.40;;;-5.70;1.40;;;-5.06;100.00;95523.61;642129;216;31845;-74
2021/12/23 03:08:15;;;;;;;1.30;1.00;;;-5.70;1.40;;;-4.98;100.00;95527.48;647110;216;31614;-74
2021/12/23 03:10:57;;;;;;;1.67;1.02;;;-5.60;1.40;;;-4.90;100.00;95525.36;646192;212;31534;-75
2021/12/23 03:13:38;;;;;;;1.65;1.40;;;-5.50;1.40;;;-4.93;100.00;95523.95;646485;216;31537;-75
2021/12/23 03:16:20;;;;;;;3.22;1.20;;;-5.70;1.40;;;-4.92;100.00;95519.41;621230;226;32006;-75
2021/12/23 03:19:02;;;;;;;3.72;2.35;;;-5.60;1.40;;;-4.90;100.00;95521.72;620045;226;32057;-74
2021/12/23 03:21:45;;;;;;;1.77;1.67;;;-5.70;1.40;;;-5.04;100.00;95515.87;646778;216;31757;-74
2021/12/23 03:24:26;;;;;;;2.03;1.75;;;-5.80;1.40;;;-5.07;100.00;95513.75;647564;216;31564;-74
2021/12/23 03:29:42;;;;;;;3.97;1.48;;;-5.90;1.40;;;-5.17;100.00;95495.62;643493;217;31640;-75
2021/12/23 03:32:24;;;;;;;3.40;2.20;;;-6.00;1.40;;;-5.16;100.00;95496.50;647467;212;31543;-75
2021/12/23 03:35:50;;;;;;;3.45;1.33;;;-6.00;1.40;;;-5.28;100.00;95496.20;648497;216;31587;-74
2021/12/23 03:38:32;;;;;;;1.50;1.40;;;-6.00;1.40;;;-5.21;100.00;95499.44;647074;212;32250;-74
2021/12/23 03:41:15;;;;;;;2.20;2.00;;;-5.80;1.40;;;-5.20;100.00;95490.78;647254;212;32323;-75
2021/12/23 03:43:56;;;;;;;1.20;0.73;;;-5.80;1.40;;;-5.20;100.00;95479.43;648273;216;42312;-74
2021/12/23 03:46:38;;;;;;;1.75;1.65;;;-5.80;1.40;;;-5.23;100.00;95488.41;647353;212;31525;-73
2021/12/23 03:49:19;;;;;;;2.20;2.00;;;-5.90;1.40;;;-5.24;100.00;95493.94;647671;216;32009;-74
2021/12/23 03:52:01;;;;;;;3.33;1.27;;;-6.00;1.40;;;-5.36;100.00;95482.59;648546;216;32104;-75
2021/12/23 03:54:43;;;;;;;4.10;1.40;;;-6.20;1.40;;;-5.46;100.00;95485.59;647597;216;31638;-75
2021/12/23 03:57:24;;;;;;;1.83;1.50;;;-6.30;1.40;;;-5.47;100.00;95472.41;620041;226;31927;-75
2021/12/23 04:00:08;;;;;;;2.55;1.42;;;-6.30;1.40;;;-5.58;100.00;95461.13;647519;216;31550;-74
2021/12/23 04:02:54;;;;;;;1.60;1.50;;;-6.40;1.40;;;-5.87;100.00;95469.53;647071;216;42318;-74
2021/12/23 04:05:35;;;;;;;2.95;2.75;;;-6.60;1.40;;;-5.98;100.00;95472.42;646629;216;42323;-74
2021/12/23 04:08:16;;;;;;;1.80;0.95;;;-6.70;1.40;;;-5.98;100.00;95474.96;647002;212;31650;-74
2021/12/23 04:10:59;;;;;;;6.05;2.17;;;-6.80;1.40;;;-5.89;100.00;95469.66;647507;216;31596;-74
2021/12/23 04:13:40;;;;;;;1.70;1.20;;;-6.80;1.40;;;-6.00;100.00;95462.27;647488;216;31628;-72
2021/12/23 04:16:21;;;;;;;2.25;1.35;;;-6.80;1.40;;;-6.13;100.00;95466.32;647438;216;42649;-74
2021/12/23 04:19:07;;;;;;;2.40;1.25;;;-6.80;1.40;;;-6.22;100.00;95464.08;647246;212;31593;-74
2021/12/23 04:21:45;;;;;;;2.00;1.20;;;-6.90;1.40;;;-6.33;100.00;95459.30;647388;216;43123;-75
2021/12/23 04:24:29;;;;;;;8.02;1.92;;;-7.00;1.40;;;-6.40;100.00;95449.58;648427;212;31545;-75
2021/12/23 04:27:11;;;;;;;3.50;1.70;;;-7.00;1.40;;;-6.48;100.00;95435.05;647133;212;31551;-73
2021/12/23 04:29:53;;;;;;;1.30;1.20;;;-7.00;1.40;;;-6.45;100.00;95432.97;647528;212;31626;-75
2021/12/23 04:32:34;;;;;;;1.30;0.70;;;-7.10;1.40;;;-6.56;100.00;95428.24;648216;216;32037;-74
2021/12/23 04:35:51;;;;;;;3.53;1.58;;;-7.30;1.40;;;-6.49;100.00;95423.66;647886;215;31817;-75
2021/12/23 04:38:33;;;;;;;1.00;0.90;;;-7.30;1.40;;;-6.59;100.00;95422.58;647269;216;31558;-74
2021/12/23 04:41:17;;;;;;;3.15;1.50;;;-7.20;1.40;;;-6.62;100.00;95419.09;648180;212;31613;-75
2021/12/23 04:43:59;;;;;;;3.10;1.00;;;-7.30;1.40;;;-6.57;100.00;95409.77;646833;216;31568;-74
2021/12/23 04:46:41;;;;;;;2.03;1.23;;;-7.30;1.40;;;-6.73;100.00;95406.69;621143;222;31874;-72
2021/12/23 04:49:23;;;;;;;5.20;1.73;;;-7.40;1.40;;;-6.75;100.00;95407.73;647144;216;31554;-74
2021/12/23 04:52:05;;;;;;;1.33;0.90;;;-7.40;1.40;;;-6.81;100.00;95403.11;646548;216;31883;-74
2021/12/23 04:54:46;;;;;;;1.12;1.05;;;-7.60;1.40;;;-6.94;100.00;95409.31;647118;216;31529;-74
2021/12/23 04:57:28;;;;;;;1.80;1.20;;;-7.60;1.40;;;-6.76;100.00;95410.52;646890;216;31758;-75
2021/12/23 05:00:13;;;;;;;3.00;2.00;;;-7.60;1.40;;;-6.71;100.00;95410.71;646477;216;31586;-74
2021/12/23 05:02:54;;;;;;;3.55;1.15;;;-7.60;1.40;;;-6.93;100.00;95413.20;620047;222;32080;-74
2021/12/23 05:05:36;;;;;;;3.70;2.00;;;-7.60;1.40;;;-6.99;100.00;95415.84;647901;216;31544;-75
2021/12/23 05:08:18;;;;;;;3.30;2.08;;;-7.70;1.40;;;-6.98;100.00;95411.20;646862;216;31550;-74
2021/12/23 05:10:59;;;;;;;1.23;1.12;;;-7.70;1.40;;;-7.06;100.00;95404.67;646873;212;31600;-74
2021/12/23 05:13:43;;;;;;;2.08;1.37;;;-7.70;1.40;;;-6.93;100.00;95405.23;620864;226;31962;-75
2021/12/23 05:16:25;;;;;;;1.25;1.15;;;-7.60;1.40;;;-6.80;100.00;95408.39;647792;212;31779;-74
2021/12/23 05:19:07;;;;;;;1.90;1.30;;;-7.50;1.40;;;-6.55;100.00;95408.41;648685;216;31537;-74
2021/12/23 05:21:48;;;;;;;3.40;1.80;;;-7.20;1.40;;;-6.34;100.00;95413.95;649733;216;31556;-75
2021/12/23 05:24:35;;;;;;;1.50;1.10;;;-7.00;1.40;;;-6.21;100.00;95406.09;648972;212;31556;-74
2021/12/23 05:27:17;;;;;;;2.10;1.85;;;-6.90;1.40;;;-6.00;100.00;95408.80;619911;226;32052;-74
2021/12/23 05:30:01;;;;;;;2.92;1.30;;;-6.80;1.40;;;-5.88;100.00;95410.03;647667;216;31527;-74
2021/12/23 05:32:42;;;;;;;3.00;1.83;;;-6.60;1.40;;;-5.88;100.00;95407.28;619659;222;31872;-75
2021/12/23 05:35:51;;;;;;;1.85;1.50;;;-6.50;1.40;;;-5.97;100.00;95408.41;647177;212;31552;-74
2021/12/23 05:38:33;;;;;;;4.50;1.83;;;-6.50;1.40;;;-5.87;100.00;95403.13;648217;212;42234;-74
2021/12/23 05:41:18;;;;;;;1.50;1.40;;;-6.40;1.40;;;-5.77;100.00;95408.56;646991;216;31635;-75
2021/12/23 05:44:00;;;;;;;4.25;1.45;;;-6.30;1.40;;;-5.68;100.00;95410.78;646962;216;31555;-74
2021/12/23 05:46:41;;;;;;;2.10;1.40;;;-6.30;1.40;;;-5.39;100.00;95411.80;647870;216;31584;-74
2021/12/23 05:49:23;;;;;;;1.23;1.10;;;-6.30;1.40;;;-5.25;100.00;95408.85;647634;212;31602;-73
2021/12/23 05:52:08;;;;;;;2.62;1.70;;;-6.20;1.40;;;-5.50;100.00;95409.77;619525;222;33280;-75
2021/12/23 05:54:50;;;;;;;3.15;1.80;;;-6.30;1.40;;;-5.52;100.00;95408.64;620272;226;31926;-74
2021/12/23 05:57:32;;;;;;;3.00;1.60;;;-6.40;1.40;;;-5.57;100.00;95397.59;642237;217;31638;-74
2021/12/23 06:00:21;;;;;;;3.00;1.40;;;-6.40;1.40;;;-5.70;100.00;95392.23;646387;216;32360;-74
2021/12/23 06:03:02;;;;;;;1.10;1.00;;;-6.40;1.40;;;-5.60;100.00;95396.22;648282;216;31527;-74
2021/12/23 06:05:44;;;;;;;5.75;2.60;;;-6.30;1.40;;;-5.63;100.00;95397.30;640473;216;42333;-73
2021/12/23 06:08:26;;;;;;;1.20;1.10;;;-6.30;1.40;;;-5.47;100.00;95396.55;619355;222;42537;-75
2021/12/23 06:11:11;;;;;;;2.90;2.17;;;-6.20;1.40;;;-5.66;100.00;95397.50;648047;216;31512;-74
2021/12/23 06:13:53;;;;;;;2.60;1.40;;;-6.30;1.40;;;-5.48;100.00;95402.12;646635;216;31784;-74
2021/12/23 06:16:35;;;;;;;2.80;1.30;;;-6.20;1.40;;;-5.33;100.00;95406.89;646642;212;42469;-73
2021/12/23 06:19:17;;;;;;;2.40;1.80;;;-6.20;1.40;;;-5.14;100.00;95403.51;620274;226;42512;-74
2021/12/23 06:22:01;;;;;;;2.20;1.10;;;-6.20;1.40;;;-5.30;100.00;95399.14;647644;216;42169;-74
2021/12/23 06:24:45;;;;;;;2.40;1.50;;;-6.30;1.40;;;-5.71;100.00;95409.30;647267;212;42220;-75
2021/12/23 06:27:25;;;;;;;4.10;1.20;;;-6.40;1.40;;;-5.74;100.00;95405.00;646154;216;42147;-74
2021/12/23 06:30:17;;;;;;;1.40;1.00;;;-6.50;1.40;;;-5.97;100.00;95401.79;620043;226;42646;-73
2021/12/23 06:32:57;;;;;;;3.20;1.85;;;-6.50;1.40;;;-6.06;100.00;95403.83;646968;216;31612;-74
2021/12/23 06:35:51;;;;;;;1.65;1.55;;;-6.60;1.40;;;-6.20;100.00;95409.39;647653;212;31609;-74
2021/12/23 06:38:32;;;;;;;6.70;1.80;;;-6.70;1.40;;;-6.21;100.00;95408.09;648122;212;31562;-74
2021/12/23 06:41:20;;;;;;;2.53;1.80;;;-6.70;1.40;;;-6.34;100.00;95407.12;646252;216;31778;-75
2021/12/23 06:44:08;;;;;;;1.87;1.42;;;-6.70;1.40;;;-6.33;100.00;95406.61;646996;212;31564;-74
2021/12/23 06:46:53;;;;;;;2.70;1.60;;;-6.70;1.40;;;-6.40;100.00;95399.84;635690;216;31854;-74
2021/12/23 06:49:34;;;;;;;3.10;1.20;;;-6.80;1.40;;;-6.30;100.00;95391.89;620052;226;31877;-74
2021/12/23 06:52:16;;;;;;;3.17;1.40;;;-6.80;1.40;;;-6.61;100.00;95399.42;648147;216;31530;-74
2021/12/23 06:54:58;;;;;;;5.53;2.83;;;-6.90;1.40;;;-6.60;100.00;95400.81;647383;212;31576;-75
2021/12/23 06:57:44;;;;;;;4.20;1.52;;;-7.00;1.40;;;-6.50;100.00;95403.41;649034;215;42213;-74
2021/12/23 07:00:26;;;;;;;3.00;1.77;;;-7.00;1.40;;;-6.44;100.00;95401.77;647566;216;31593;-75
2021/12/23 07:03:10;;;;;;;4.20;1.50;;;-7.00;1.40;;;-6.51;100.00;95405.88;647144;212;31582;-74
2021/12/23 07:06:03;;;;;;;2.62;2.08;;;-7.00;1.40;;;-6.84;100.00;95404.15;639357;216;31692;-74
2021/12/23 07:08:37;;;;;;;4.70;1.80;;;-7.30;1.40;;;-6.96;100.00;95411.90;647927;212;31815;-74
2021/12/23 07:11:16;;;;;;;1.90;1.20;;;-7.40;1.40;;;-7.00;100.00;95407.22;648225;216;31570;-74
2021/12/23 07:13:57;;;;;;;2.20;1.50;;;-7.40;1.40;;;-7.18;100.00;95406.86;647819;212;31617;-75
2021/12/23 07:16:40;;;;;;;1.30;1.30;;;-7.60;1.40;;;-7.09;100.00;95409.70;652210;216;23457;-75
2021/12/23 07:19:21;;;;;;;6.05;1.85;;;-7.60;1.40;;;-7.11;100.00;95413.23;647917;212;31548;-74
2021/12/23 07:22:03;;;;;;;2.80;1.90;;;-7.60;1.40;;;-7.27;100.00;95421.02;648062;216;31648;-74
2021/12/23 07:24:47;;;;;;;2.00;1.40;;;-7.60;1.40;;;-7.29;100.00;95417.75;619009;226;32120;-74
2021/12/23 07:27:28;;;;;;;1.55;1.23;;;-7.50;1.40;;;-7.37;100.00;95415.33;647412;216;31893;-74
2021/12/23 07:30:11;;;;;;;2.42;1.35;;;-7.50;1.40;;;-7.34;100.00;95422.57;647875;216;31532;-74
2021/12/23 07:32:54;;;;;;;4.55;2.03;;;-7.50;1.40;;;-7.26;100.00;95425.85;646592;216;31565;-74
2021/12/23 07:35:51;;;;;;;3.87;1.48;;;-7.50;1.40;;;-7.23;100.00;95431.64;646966;212;31655;-74
2021/12/23 07:38:34;;;;;;;2.67;1.70;;;-7.40;1.40;;;-6.97;100.00;95430.20;648728;216;31602;-75
2021/12/23 07:41:16;;;;;;;0.90;0.90;;;-7.30;1.40;;;-6.84;100.00;95427.57;646885;216;42218;-74
2021/12/23 07:43:59;;;;;;;1.40;1.30;;;-7.20;1.40;;;-6.68;100.00;95432.94;642476;217;42748;-74
2021/12/23 07:46:39;;;;;;;3.35;1.33;;;-7.00;1.40;;;-6.23;100.00;95429.17;620139;222;32048;-74
2021/12/23 07:49:21;;;;;;;6.90;2.00;;;-6.70;1.40;;;-6.27;100.00;95426.45;646629;212;31562;-74
2021/12/23 07:52:03;;;;;;;4.03;1.60;;;-6.60;1.40;;;-6.15;100.00;95413.43;647848;216;42047;-72
2021/12/23 07:54:45;;;;;;;5.00;1.50;;;-6.50;1.40;;;-5.98;100.00;95413.63;647524;216;31726;-74
2021/12/23 07:57:26;;;;;;;3.40;2.00;;;-6.40;1.40;;;-5.65;100.00;95408.69;647430;216;31879;-75
2021/12/23 08:00:09;;;;;;;1.90;1.60;;;-6.30;1.40;;;-5.45;100.00;95410.20;647811;212;42282;-75
2021/12/23 08:02:50;;;;;;;4.05;2.55;;;-6.30;1.40;;;-5.56;100.00;95408.02;646792;212;42891;-74
2021/12/23 08:05:33;;;;;;;2.03;1.15;;;-6.30;1.40;;;-5.17;100.00;95408.84;641116;216;42959;-74
2021/12/23 08:08:14;;;;;;;2.08;1.98;;;-6.10;1.40;;;-5.05;100.00;95409.14;648304;216;42179;-74
2021/12/23 08:10:55;;;;;;;5.37;1.83;;;-6.00;1.40;;;-4.81;100.00;95412.23;647280;213;32167;-74
2021/12/23 08:13:37;;;;;;;2.00;1.40;;;-5.90;1.40;;;-4.85;100.00;95416.06;648009;212;31879;-74
2021/12/23 08:16:19;;;;;;;3.50;2.30;;;-6.00;1.40;;;-4.80;100.00;95400.59;647198;216;32173;-74
2021/12/23 08:19:00;;;;;;;2.40;1.25;;;-5.90;1.40;;;-4.85;100.00;95402.30;646166;216;31621;-74
2021/12/23 08:21:42;;;;;;;2.15;1.17;;;-5.90;1.40;;;-4.74;100.00;95396.39;620016;226;31969;-74
2021/12/23 08:24:24;;;;;;;2.70;1.17;;;-5.70;1.40;;;-4.77;100.00;95396.29;647135;212;31765;-74
2021/12/23 08:27:07;;;;;;;3.53;1.52;;;-5.70;1.40;;;-4.75;100.00;95399.64;619300;226;31943;-75
2021/12/23 08:29:47;;;;;;;3.30;1.50;;;-5.60;1.40;;;-4.67;100.00;95390.03;647175;212;31614;-75
2021/12/23 08:32:38;;;;;;;3.10;2.80;;;-5.50;1.40;;;-4.05;100.00;95384.41;647246;216;31556;-76
2021/12/23 08:35:52;;;;;;;2.35;2.25;;;-5.10;1.40;;;-3.75;100.00;95370.62;646811;216;31601;-74
2021/12/23 08:38:34;;;;;;;3.00;1.30;;;-4.90;1.40;;;-3.79;100.00;95375.46;620514;222;31936;-75
2021/12/23 08:41:16;;;;;;;4.60;3.15;;;-4.80;1.40;;;-3.73;100.00;95371.68;647748;212;31644;-74
2021/12/23 08:44:01;;;;;;;2.33;2.12;;;-4.80;1.40;;;-3.36;100.00;95370.37;647817;216;31576;-76
2021/12/23 08:46:43;;;;;;;2.55;2.17;;;-4.50;1.40;;;-3.08;100.00;95377.39;647425;212;31572;-76
2021/12/23 08:49:30;;;;;;;5.45;3.28;;;-4.20;1.40;;;-2.73;100.00;95374.36;647039;216;32279;-74
2021/12/23 08:52:18;;;;;;;5.62;3.35;;;-3.70;1.40;;;-2.04;100.00;95371.70;646715;216;31619;-76
2021/12/23 08:55:00;;;;;;;4.40;2.45;;;-3.40;1.40;;;-2.30;100.00;95372.39;648322;212;31600;-77
2021/12/23 08:57:41;;;;;;;3.17;2.87;;;-3.20;1.40;;;-1.88;100.00;95365.41;648251;212;31571;-77
2021/12/23 09:00:26;;;;;;;3.67;2.17;;;-3.00;1.40;;;-1.97;100.00;95370.66;646104;216;32092;-76
2021/12/23 09:03:07;;;;;;;3.22;2.92;;;-2.90;1.40;;;-1.73;100.00;95364.27;646823;216;31619;-74
2021/12/23 09:05:48;;;;;;;5.00;4.07;;;-3.10;1.40;;;-1.87;100.00;95361.44;644245;216;32313;-74
2021/12/23 09:08:32;;;;;;;4.37;4.07;;;-3.20;1.40;;;-0.87;100.00;95353.98;646846;216;42227;-77
2021/12/23 09:11:14;;;;;;;7.00;2.62;;;-2.40;1.40;;;-1.26;100.00;95361.63;647619;212;42302;-77
2021/12/23 09:13:55;;;;;;;4.72;3.60;;;-2.90;1.40;;;-0.52;100.00;95350.26;647817;213;31655;-77
2021/12/23 09:16:38;;;;;;;3.37;2.50;;;-2.70;1.40;;;-0.90;100.00;95347.70;647610;216;31734;-77
2021/12/23 09:19:26;;;;;;;3.80;3.50;;;-2.90;1.40;;;-0.65;100.00;95340.45;647493;216;31623;-76
2021/12/23 09:22:09;;;;;;;4.62;4.22;;;-2.40;1.40;;;0.19;100.00;95334.88;647115;216;31568;-76
2021/12/23 09:24:58;;;;;;;5.20;3.78;;;-2.00;1.40;;;-0.47;100.00;95337.68;647859;216;31679;-77
2021/12/23 09:27:54;;;;;;;5.72;3.80;;;-2.50;1.40;;;-0.80;100.00;95345.30;647828;216;31770;-77
2021/12/23 09:35:57;;;;;;;4.80;4.30;;;-2.40;1.40;;;-0.62;100.00;95347.33;645321;216;32259;-74
2021/12/23 09:38:39;;;;;;;4.47;4.07;;;-2.30;1.40;;;-0.04;100.00;95350.32;618899;222;32257;-74
2021/12/23 09:41:27;;;;;;;3.62;3.33;;;-1.30;1.40;;;0.69;100.00;95343.84;648045;216;31572;-77
2021/12/23 09:44:15;;;;;;;3.40;3.10;;;-0.40;1.40;;;1.49;100.00;95340.41;648753;216;31618;-75
2021/12/23 09:47:03;;;;;;;4.20;3.80;;;-0.20;1.40;;;1.54;100.00;95334.58;620149;222;32526;-77
2021/12/23 09:49:44;;;;;;;5.10;4.23;;;-0.60;1.40;;;1.62;100.00;95331.36;648235;216;32127;-77
2021/12/23 09:52:25;;;;;;;5.47;4.30;;;-0.60;1.40;;;1.79;100.00;95329.10;646413;216;32174;-77
2021/12/23 09:55:08;;;;;;;6.80;4.57;;;-0.70;1.40;;;1.80;100.00;95323.34;632664;222;31785;-76
2021/12/23 09:57:49;;;;;;;5.40;4.10;;;-0.50;1.40;;;1.70;100.00;95319.83;620381;222;31898;-77
2021/12/23 10:00:32;;;;;;;5.25;4.20;;;-0.30;1.40;;;2.02;100.00;95307.96;647837;216;31580;-77
2021/12/23 10:03:14;;;;;;;4.72;4.22;;;-0.50;1.40;;;2.85;100.00;95307.08;648016;212;31682;-77
2021/12/23 10:05:57;;;;;;;5.65;4.75;;;-0.20;1.40;;;2.89;100.00;95303.03;639480;212;31759;-77
2021/12/23 10:08:39;;;;;;;7.07;4.72;;;0.10;1.40;;;3.58;100.00;95295.91;620366;226;31929;-77
2021/12/23 10:11:32;;;;;;;5.78;4.28;;;0.60;1.40;;;3.04;100.00;95298.58;648977;216;42790;-77
2021/12/23 10:38:48;;;;;;;4.15;3.50;;;1.40;1.40;;;4.33;100.00;95263.58;646915;216;31567;-77
2021/12/23 10:41:30;;;;;;;6.62;4.47;;;2.40;1.40;;;5.14;100.00;95259.14;647178;212;31568;-77
2021/12/23 10:44:12;;;;;;;7.53;5.20;;;2.40;1.40;;;5.65;100.00;95242.99;647562;216;31568;-77
2021/12/23 10:47:00;;;;;;;6.60;4.82;;;2.50;1.40;;;5.47;100.00;95229.20;642361;217;31555;-76
2021/12/23 10:49:58;;;;;;;7.10;4.40;;;2.60;1.40;;;6.08;100.00;95217.91;647767;212;31616;-77
2021/12/23 10:52:33;;;;;;;6.10;4.25;;;2.90;1.40;;;5.81;97.67;95215.96;648323;216;31942;-76
2021/12/23 10:58:20;;;;;;;5.40;4.90;;;1.40;1.40;;;4.31;100.00;95205.03;647798;216;32189;-76
2021/12/23 11:01:02;;;;;;;6.37;5.10;;;1.10;1.40;;;4.01;100.00;95202.81;647592;216;31601;-78
2021/12/23 11:03:50;;;;;;;5.50;5.00;;;1.00;1.40;;;3.74;100.00;95196.52;648047;216;31596;-77
2021/12/23 11:06:32;;;;;;;5.57;4.10;;;1.10;1.40;;;4.14;100.00;95184.69;618652;222;32266;-77
2021/12/23 11:36:17;;;;;;;4.20;3.70;;;3.70;1.40;;;6.49;100.00;95144.08;648410;216;31570;-77
2021/12/23 11:39:06;;;;;;;3.90;3.22;;;3.70;1.40;;;6.57;100.00;95137.61;647848;213;31580;-78
2021/12/23 11:41:35;;;;;;;5.10;3.30;;;3.40;1.40;;;6.50;100.00;95148.16;647387;216;31595;-77
2021/12/23 11:46:57;;;;;;;2.80;2.50;;;3.30;1.40;;;6.44;100.00;95151.89;619673;222;31929;-78
2021/12/23 11:49:44;;;;;;;3.28;2.67;;;3.20;1.40;;;6.55;100.00;95149.43;647402;212;42711;-76
2021/12/23 11:52:34;;;;;;;4.10;3.55;;;3.10;1.40;;;6.61;100.00;95143.48;602669;233;32237;-77
2021/12/23 11:55:22;;;;;;;4.37;2.80;;;3.20;1.40;;;6.30;100.00;95146.52;647316;216;31572;-75
2021/12/23 11:58:04;;;;;;;4.67;3.03;;;3.30;1.40;;;6.44;100.00;95143.22;617747;222;31999;-75
2021/12/23 12:01:03;;;;;;;3.30;3.00;;;3.40;1.40;;;6.47;100.00;95143.02;646748;212;31589;-77
2021/12/23 12:03:54;;;;;;;2.50;2.10;;;3.60;1.40;;;6.62;100.00;95133.73;646583;216;31597;-75
2021/12/23 12:06:38;;;;;;;3.20;2.90;;;3.50;1.40;;;6.66;100.00;95128.61;619160;222;31873;-77
2021/12/23 12:09:20;;;;;;;3.90;3.40;;;3.50;1.40;;;6.41;100.00;95125.70;648596;216;31581;-77
2021/12/23 12:12:09;;;;;;;3.23;2.23;;;3.30;1.40;;;5.66;100.00;95124.13;619128;222;31976;-74
2021/12/23 12:14:55;;;;;;;3.90;2.50;;;3.10;1.40;;;6.41;100.00;95119.02;646706;216;31585;-77
2021/12/23 12:17:37;;;;;;;4.70;3.43;;;3.50;1.40;;;6.64;100.00;95119.16;646608;212;31925;-75
2021/12/23 12:20:38;;;;;;;4.40;2.13;;;3.80;1.40;;;6.79;100.00;95115.28;619930;226;31969;-77
2021/12/23 12:23:32;;;;;;;2.20;1.97;;;4.00;1.40;;;7.31;100.00;95103.92;647418;216;31576;-74
2021/12/23 12:26:24;;;;;;;4.63;2.77;;;4.20;1.40;;;7.21;100.00;95106.36;618433;226;31869;-74
2021/12/23 12:29:06;;;;;;;3.78;2.40;;;4.20;1.40;;;6.94;100.00;95108.43;645092;216;31640;-75
2021/12/23 12:31:47;;;;;;;2.50;2.17;;;3.80;1.40;;;6.84;100.00;95101.91;647333;216;31593;-74
2021/12/23 12:36:13;;;;;;;2.00;1.90;;;4.00;1.40;;;7.18;100.00;95098.59;647770;212;32567;-78
2021/12/23 12:39:21;;;;;;;2.65;2.10;;;4.10;1.40;;;7.31;100.00;95096.97;614805;226;31962;-75
2021/12/23 12:42:06;;;;;;;4.27;2.10;;;4.20;1.40;;;7.15;100.00;95091.84;619054;226;31907;-76
2021/12/23 12:45:00;;;;;;;1.93;1.60;;;4.10;1.40;;;6.37;100.00;95093.91;647435;212;31573;-76
2021/12/23 12:47:40;;;;;;;2.20;1.30;;;4.00;1.40;;;6.31;100.00;95089.17;646876;216;31581;-75